This is the latest recevied weather packets stored in our database for station/object Ad4UU. If no packets are shown the sender has not sent any weather packets the latest 10 day(s).
| Time | Temp. | Humidity | Pressure | Rain* | Wind** | Luminosity | Snow |
|---|---|---|---|---|---|---|---|
| 1777680331 | 25.56° C | 72% | 1012 hPa | 0 mm | - | - | - |
| 1777680056 | 26.11° C | 71% | 1012 hPa | 0 mm | - | - | - |
| 1777679431 | 26.11° C | 71% | 1012 hPa | 0 mm | - | - | - |
| 1777678531 | 26.67° C | 69% | 1011.8 hPa | 0 mm | - | - | - |
| 1777674930 | 28.33° C | 61% | 1011.5 hPa | 0 mm | - | - | - |
| 1777673433 | 30° C | 56% | 1011.3 hPa | 0 mm | - | - | - |
| 1777672851 | 30° C | 57% | 1011.3 hPa | 0 mm | - | - | - |
| 1777670730 | 30.56° C | 53% | 1011.3 hPa | 0 mm | - | - | - |
| 1777669246 | 30° C | 54% | 1011.4 hPa | 0 mm | - | - | - |
| 1777666831 | 30° C | 57% | 1011.1 hPa | 0 mm | - | - | - |
| 1777666549 | 30° C | 56% | 1011.1 hPa | 0 mm | - | - | - |
| 1777665649 | 30° C | 55% | 1011.1 hPa | 0 mm | - | - | - |
| 1777662946 | 31.11° C | 51% | 1011.7 hPa | 0 mm | - | - | - |
| 1777662044 | 30.56° C | 53% | 1011.9 hPa | 0 mm | - | - | - |
| 1777661144 | 31.11° C | 52% | 1012.3 hPa | 0 mm | - | - | - |
| 1777660257 | 31.11° C | 51% | 1012.3 hPa | 0 mm | - | - | - |
| 1777659932 | 31.11° C | 50% | 1012.5 hPa | 0 mm | - | - | - |
| 1777657829 | 30.56° C | 54% | 1012.7 hPa | 0 mm | - | - | - |
| 1777655130 | 30.56° C | 57% | 1013.3 hPa | 0 mm | - | - | - |
| 1777653635 | 30° C | 58% | 1013.5 hPa | 0 mm | - | - | - |
| 1777652731 | 29.44° C | 59% | 1013.8 hPa | 0 mm | - | - | - |
| 1777651831 | 29.44° C | 58% | 1013.9 hPa | 0 mm | - | - | - |
| 1777647931 | 27.78° C | 65% | 1014.2 hPa | 0 mm | - | - | - |
| 1777644631 | 26.67° C | 70% | 1014.2 hPa | 0 mm | - | - | - |
| 1777644333 | 26.67° C | 71% | 1014.4 hPa | 0 mm | - | - | - |
* Rain latest hour (hover to see other rain measurements)
** Current wind speed in m/s (hover to see current wind gust speed)